Meteorología y climatología de Navarra
Datos de la estación - Meteo Navarra

Estación de Estella GN

Altitud 486 m.


Datos desde el 14/08/2019 hasta el 15/08/2019 en horario solar
Los datos son PROVISIONALES

Anterior Página 1 de 1 Siguiente Descargar: Formato para Excel 2000 o superior   Formato csv   Formato para OpenOffice Calc
Fecha Temperatura Humedad relativa Radiación global Insolación Precipitación Vel. viento 10 m Vel. viento 10 m Dir. viento 10 m
ºC % W/m² s l/m² m/s km/h º
14/08/2019 0:00 12.8 68 0.0 0 0.0 1.3 4.6 341
14/08/2019 0:10 12.8 68 0.0 0 0.0 0.4 1.6 322
14/08/2019 0:20 12.7 66 0.0 0 0.0 1.0 3.5 337
14/08/2019 0:30 13.1 65 0.0 0 0.0 1.0 3.6 5
14/08/2019 0:40 12.7 67 0.0 0 0.0 1.1 3.8 319
14/08/2019 0:50 12.6 68 0.0 0 0.0 0.9 3.2 325
14/08/2019 1:00 12.5 68 0.0 0 0.0 1.1 3.9 315
14/08/2019 1:10 12.7 67 0.0 0 0.0 0.7 2.5 330
14/08/2019 1:20 12.6 66 0.0 0 0.0 1.0 3.5 300
14/08/2019 1:30 12.4 66 0.0 0 0.0 1.1 3.8 321
14/08/2019 1:40 12.4 66 0.0 0 0.0 0.9 3.2 23
14/08/2019 1:50 12.2 67 0.0 0 0.0 0.9 3.4 314
14/08/2019 2:00 12.0 68 0.0 0 0.0 1.2 4.5 4
14/08/2019 2:10 12.0 66 0.0 0 0.0 1.5 5.3 333
14/08/2019 2:20 12.1 65 0.0 0 0.0 1.1 3.9 316
14/08/2019 2:30 12.1 65 0.0 0 0.0 1.3 4.5 326
14/08/2019 2:40 11.8 66 0.0 0 0.0 1.1 3.9 329
14/08/2019 2:50 11.8 65 0.0 0 0.0 1.5 5.5 347
14/08/2019 3:00 12.0 64 0.0 0 0.0 1.4 4.9 335
14/08/2019 3:10 12.0 64 0.0 0 0.0 1.3 4.8 341
14/08/2019 3:20 11.8 65 0.0 0 0.0 0.7 2.6 344
14/08/2019 3:30 11.4 67 0.0 0 0.0 0.8 2.7 306
14/08/2019 3:40 11.1 69 0.0 0 0.0 1.1 4.0 341
14/08/2019 3:50 10.8 69 0.0 0 0.0 0.7 2.4 330
14/08/2019 4:00 10.9 68 0.0 0 0.0 1.8 6.5 345
14/08/2019 4:10 11.0 68 0.0 0 0.0 1.6 5.7 345
14/08/2019 4:20 10.8 69 0.0 0 0.0 1.1 4.0 331
14/08/2019 4:30 10.9 68 0.0 0 0.0 1.7 6.3 349
14/08/2019 4:40 11.2 65 0.0 0 0.0 2.2 7.8 357
14/08/2019 4:50 11.1 64 0.0 0 0.0 1.0 3.7 347
14/08/2019 5:00 11.0 66 0.0 0 0.0 1.1 4.0 321
14/08/2019 5:10 11.0 66 0.0 0 0.0 1.6 5.9 325
14/08/2019 5:20 11.0 65 0.0 0 0.0 1.8 6.6 347
14/08/2019 5:30 11.1 63 0.0 0 0.0 1.3 4.8 324
14/08/2019 5:40 10.8 67 2.2 0 0.0 1.3 4.7 307
14/08/2019 5:50 10.9 61 18.2 0 0.0 1.3 4.5 346
14/08/2019 6:00 11.3 60 24.6 0 0.0 1.2 4.2 332
14/08/2019 6:10 11.1 61 41.2 88 0.0 1.6 5.7 343
14/08/2019 6:20 12.2 56 125.0 600 0.0 2.4 8.7 332
14/08/2019 6:30 12.8 56 154.2 600 0.0 1.7 6.0 337
14/08/2019 6:40 13.0 57 184.5 600 0.0 1.5 5.5 305
14/08/2019 6:50 13.3 58 215.3 600 0.0 1.5 5.4 328
14/08/2019 7:00 13.7 59 248.0 600 0.0 1.4 5.1 318
14/08/2019 7:10 14.3 58 280.2 600 0.0 1.2 4.2 317
14/08/2019 7:20 15.2 55 311.8 600 0.0 1.0 3.7 320
14/08/2019 7:30 15.7 54 344.5 600 0.0 1.2 4.2 333
14/08/2019 7:40 15.9 53 377.5 600 0.0 1.3 4.8 325
14/08/2019 7:50 16.6 49 409.0 600 0.0 1.0 3.7 324
14/08/2019 8:00 17.6 44 440.0 600 0.0 1.1 3.9 324
14/08/2019 8:10 18.4 42 471.4 600 0.0 1.1 4.0 337
14/08/2019 8:20 19.1 40 501.9 600 0.0 1.1 3.8 344
14/08/2019 8:30 20.1 35 532.9 600 0.0 1.2 4.4 323
14/08/2019 8:40 20.9 33 562.8 600 0.0 1.1 3.9 280
14/08/2019 8:50 21.2 33 592.4 600 0.0 1.3 4.5 268
14/08/2019 9:00 21.6 34 619.9 600 0.0 1.0 3.4 288
14/08/2019 9:10 22.3 32 647.5 600 0.0 1.2 4.4 297
14/08/2019 9:20 23.1 31 673.2 600 0.0 0.9 3.3 273
14/08/2019 9:30 23.6 31 695.7 600 0.0 1.0 3.6 295
14/08/2019 9:40 24.3 30 721.0 600 0.0 1.0 3.5 259
14/08/2019 9:50 24.2 30 738.2 600 0.0 1.1 3.8 240
14/08/2019 10:00 24.8 29 722.6 600 0.0 0.8 3.0 12
14/08/2019 10:10 25.3 29 802.0 600 0.0 1.3 4.8 42
14/08/2019 10:20 25.5 29 766.9 600 0.0 1.0 3.4 192
14/08/2019 10:30 26.3 28 839.0 600 0.0 1.4 4.9 178
14/08/2019 10:40 26.2 28 841.0 600 0.0 1.2 4.5 66
14/08/2019 10:50 26.7 28 878.0 600 0.0 2.0 7.3 185
14/08/2019 11:00 27.4 26 882.0 600 0.0 1.4 4.9 295
14/08/2019 11:10 28.0 26 957.0 600 0.0 2.0 7.2 250
14/08/2019 11:20 28.1 26 643.6 596 0.0 2.5 9.0 249
14/08/2019 11:30 28.0 26 895.0 600 0.0 2.2 8.0 244
14/08/2019 11:40 28.3 26 931.0 600 0.0 1.8 6.3 248
14/08/2019 11:50 28.6 26 937.0 600 0.0 1.4 5.1 260
14/08/2019 12:00 29.0 26 941.0 600 0.0 2.3 8.2 287
14/08/2019 12:10 29.1 27 952.0 600 0.0 1.6 5.7 288
14/08/2019 12:20 29.7 27 957.0 600 0.0 2.4 8.6 305
14/08/2019 12:30 29.9 26 951.0 600 0.0 2.6 9.4 310
14/08/2019 12:40 29.8 27 939.0 600 0.0 2.4 8.6 316
14/08/2019 12:50 30.0 26 927.0 600 0.0 2.1 7.6 350
14/08/2019 13:00 30.0 27 918.0 600 0.0 2.5 8.9 340
14/08/2019 13:10 30.0 27 895.0 600 0.0 2.6 9.3 319
14/08/2019 13:20 30.0 27 878.0 600 0.0 2.5 8.9 315
14/08/2019 13:30 30.1 27 866.0 600 0.0 2.3 8.2 345
14/08/2019 13:40 30.1 27 852.0 600 0.0 2.4 8.5 326
14/08/2019 13:50 30.4 28 840.0 600 0.0 2.0 7.3 310
14/08/2019 14:00 30.1 28 826.0 600 0.0 2.5 9.0 337
14/08/2019 14:10 29.9 29 809.0 600 0.0 1.7 6.0 287
14/08/2019 14:20 30.1 29 790.3 600 0.0 1.8 6.4 291
14/08/2019 14:30 30.4 30 769.1 600 0.0 1.9 6.8 315
14/08/2019 14:40 29.9 30 745.9 600 0.0 2.0 7.0 318
14/08/2019 14:50 29.8 31 723.1 600 0.0 2.1 7.5 312
14/08/2019 15:00 30.2 30 698.9 600 0.0 2.2 8.0 300
14/08/2019 15:10 29.7 30 675.0 600 0.0 2.5 8.8 316
14/08/2019 15:20 29.7 30 650.9 600 0.0 2.0 7.0 326
14/08/2019 15:30 29.5 30 626.7 600 0.0 2.2 7.9 336
14/08/2019 15:40 29.4 31 602.9 600 0.0 2.3 8.4 357
14/08/2019 15:50 29.2 32 571.9 600 0.0 1.7 6.2 330
14/08/2019 16:00 29.2 33 538.0 600 0.0 2.0 7.3 339
14/08/2019 16:10 28.9 34 507.4 600 0.0 2.0 7.2 346
14/08/2019 16:20 28.8 35 478.4 600 0.0 1.9 6.9 331
14/08/2019 16:30 28.6 35 450.8 600 0.0 2.6 9.4 328
14/08/2019 16:40 28.6 36 424.4 600 0.0 1.6 5.9 19
14/08/2019 16:50 28.3 36 390.9 600 0.0 1.3 4.8 359
14/08/2019 17:00 28.3 36 353.4 600 0.0 1.3 4.8 30
14/08/2019 17:10 27.6 37 326.4 600 0.0 1.7 6.1 13
14/08/2019 17:20 27.4 37 296.1 600 0.0 1.1 4.1 40
14/08/2019 17:30 26.9 38 266.9 600 0.0 1.9 6.8 26
14/08/2019 17:40 26.2 40 248.6 600 0.0 0.9 3.3 33
14/08/2019 17:50 26.2 40 229.1 600 0.0 1.5 5.5 351
14/08/2019 18:00 26.0 41 188.4 600 0.0 1.6 5.9 336
14/08/2019 18:10 25.5 43 145.9 600 0.0 2.5 8.9 350
14/08/2019 18:20 25.1 45 108.8 600 0.0 1.8 6.4 2
14/08/2019 18:30 24.9 46 83.2 600 0.0 1.1 3.9 115
14/08/2019 18:40 24.5 49 54.7 374 0.0 1.3 4.6 231
14/08/2019 18:50 23.8 51 21.6 0 0.0 1.5 5.3 218
14/08/2019 19:00 23.2 53 0.0 0 0.0 1.9 6.8 33
14/08/2019 19:10 22.5 54 0.0 0 0.0 1.1 4.0 345
14/08/2019 19:20 22.1 54 0.0 0 0.0 1.3 4.6 343
14/08/2019 19:30 21.6 54 0.0 0 0.0 1.7 6.3 356
14/08/2019 19:40 21.2 56 0.0 0 0.0 2.2 8.0 23
14/08/2019 19:50 20.9 58 0.0 0 0.0 1.9 7.0 45
14/08/2019 20:00 20.5 60 0.0 0 0.0 1.1 3.9 59
14/08/2019 20:10 20.0 63 0.0 0 0.0 0.7 2.6 94
14/08/2019 20:20 20.0 64 0.0 0 0.0 1.4 4.9 157
14/08/2019 20:30 20.0 66 0.0 0 0.0 1.8 6.3 10
14/08/2019 20:40 19.8 67 0.0 0 0.0 1.5 5.3 10
14/08/2019 20:50 19.8 68 0.0 0 0.0 1.7 6.3 353
14/08/2019 21:00 19.7 69 0.0 0 0.0 1.3 4.7 26
14/08/2019 21:10 19.5 70 0.0 0 0.0 1.6 5.7 27
14/08/2019 21:20 19.6 71 0.0 0 0.0 2.1 7.5 357
14/08/2019 21:30 19.5 72 0.0 0 0.0 1.7 6.0 325
14/08/2019 21:40 19.5 72 0.0 0 0.0 1.7 6.2 318
14/08/2019 21:50 19.4 72 0.0 0 0.0 1.6 5.7 332
14/08/2019 22:00 19.4 73 0.0 0 0.0 1.9 6.8 343
14/08/2019 22:10 19.4 73 0.0 0 0.0 1.8 6.4 326
14/08/2019 22:20 19.5 73 0.0 0 0.0 1.5 5.5 316
14/08/2019 22:30 19.6 73 0.0 0 0.0 1.5 5.3 316
14/08/2019 22:40 19.6 73 0.0 0 0.0 1.7 6.0 308
14/08/2019 22:50 19.5 74 0.0 0 0.0 1.1 4.0 313
14/08/2019 23:00 19.5 74 0.0 0 0.0 1.7 6.0 330
14/08/2019 23:10 19.5 75 0.0 0 0.0 1.7 6.0 318
14/08/2019 23:20 19.4 75 0.0 0 0.0 1.5 5.3 322
14/08/2019 23:30 19.4 75 0.0 0 0.0 1.4 5.0 311
14/08/2019 23:40 19.3 75 0.0 0 0.0 1.0 3.7 330
14/08/2019 23:50 19.2 76 0.0 0 0.0 1.4 4.9 355
Anterior Página 1 de 1 Siguiente

NOTA: Tipo de datos según el color:
   - Valores diarios o 10 minutos correctos
   - Valores diarios calculados a partir de un número de datos 10 minutos menor que 144 y mayor que 120, o de un número de datos semihorarios menor que 48 y mayor que 40 (caso de las estaciones de Riegos de Navarra y del MARM)
   - Valores diez minutos estimados


Contacto        Enlaces        Aviso legal